Thunder radar more information blitzortung!


avis per Snow/Ice more information rain snow radar


Visita la nostra xarxa de llocs de meteo:

Template documentation
and downloads

And another site



Snow/Ice From: 26-02-2018 12:00 Until: 27-02-2018 05:59 warning for: Snow/Ice Level: Yellow info button

Pagina Historial Weather Underground text

Diari Resum February 8, 2018 Unitats:  Mètric    Imperial   Tant
« Previous Dia
SegĂźent Dia »
Diari Setmana Mensual Anual Personalitzada
  Maxima: Minima: Media:
Temperatura: -17.8 °C -18.3 °C -16.6 °C
Punt de rosada: -17.8 °C -22.2 °C -20.6 °C
Humitat: Humidity % 49 % 58 %
Wind Speed: 0 km/h 0 km/h 5.8 km/h
RĂ fegues de vent: 0 km/h - -
Vent:- - SE
Pression baro: 0 hPa 34361.1 hPa -
Precipitacions: 0 mm    
Historical Graphs
 
 
Dades de taula per February 8, 2018
Temps Temperatura Punt de rosada Pression baro Vent Wind Speed RĂ fegues de vent Humitat Rainfall Rate (Hourly)
-17.8 °C -17.8 °C 0 hPa Calm     Humidity % 0 mm
00:01 -16.2 °C -21.4 °C 34395 hPa West 6.3 km/h 6.3 km/h 50 % 0 mm
00:06 -16.2 °C -21.4 °C 34395 hPa NNE 6 km/h 6 km/h 50 % 0 mm
00:11 -16.2 °C -21.4 °C 34395 hPa WNW 5.1 km/h   50 % 0 mm
00:16 -16.3 °C -21.5 °C 34395 hPa NW 6.8 km/h   50 % 0 mm
00:21 -16.3 °C -21.6 °C 34395 hPa NW 6 km/h 6 km/h 50 % 0 mm
00:26 -16.4 °C -21.6 °C 34395 hPa SSE 3.1 km/h   50 % 0 mm
00:31 -16.4 °C -21.6 °C 34395 hPa WNW 3.1 km/h   50 % 0 mm
00:36 -16.4 °C -21.7 °C 34395 hPa West 3.1 km/h 3.1 km/h 50 % 0 mm
00:41 -16.6 °C -21.8 °C 34395 hPa Calm     50 % 0 mm
00:46 -16.6 °C -21.8 °C 34395 hPa WNW 6 km/h 6 km/h 50 % 0 mm
00:51 -16.6 °C -21.8 °C 34395 hPa NNE 3.1 km/h 3.7 km/h 50 % 0 mm
00:56 -16.7 °C -21.7 °C 34395 hPa WNW 3.1 km/h   51 % 0 mm
01:01 -16.7 °C -21.7 °C 34395 hPa ENE 3.7 km/h   51 % 0 mm
01:06 -16.7 °C -21.8 °C 34395 hPa NNW 3.1 km/h 3.1 km/h 51 % 0 mm
01:11 -16.7 °C -21.8 °C 34395 hPa WNW 3.1 km/h   51 % 0 mm
01:16 -16.8 °C -21.8 °C 34395 hPa West 3.1 km/h   51 % 0 mm
01:21 -16.8 °C -21.8 °C 34395 hPa West 3.1 km/h 3.1 km/h 51 % 0 mm
01:26 -16.8 °C -21.9 °C 34395 hPa West 6 km/h 6 km/h 51 % 0 mm
01:31 -16.9 °C -21.9 °C 34395 hPa WSW 3.1 km/h 3.7 km/h 51 % 0 mm
01:36 -16.8 °C -21.9 °C 34395 hPa West 6 km/h 6 km/h 51 % 0 mm
01:41 -16.8 °C -21.9 °C 34395 hPa West 3.1 km/h 3.1 km/h 51 % 0 mm
01:46 -16.9 °C -22 °C 34395 hPa Calm     51 % 0 mm
01:51 -17 °C -22.1 °C 34395 hPa West 4.2 km/h   51 % 0 mm
01:56 -16.9 °C -22 °C 34395 hPa West 3.1 km/h 3.1 km/h 51 % 0 mm
02:01 -16.9 °C -22 °C 34395 hPa West 3.1 km/h   51 % 0 mm
02:06 -16.9 °C -21.9 °C 34395 hPa ENE 6 km/h 6 km/h 51 % 0 mm
02:11 -16.9 °C -22 °C 34395 hPa ENE 6 km/h 6 km/h 51 % 0 mm
02:16 -17.1 °C -21.9 °C 34361.1 hPa NNE 3.7 km/h   52 % 0 mm
02:21 -17.1 °C -21.9 °C 34361.1 hPa NNE 3.7 km/h 3.7 km/h 52 % 0 mm
02:26 -17.1 °C -22 °C 34361.1 hPa NNE 6 km/h 6 km/h 52 % 0 mm
02:31 -17.1 °C -22 °C 34395 hPa NNE 3.1 km/h   52 % 0 mm
02:36 -17.2 °C -22.1 °C 34395 hPa Calm     52 % 0 mm
02:41 -17.2 °C -22.1 °C 34395 hPa WNW 3.1 km/h 3.1 km/h 52 % 0 mm
02:46 -17.3 °C -22.2 °C 34395 hPa Calm     52 % 0 mm
02:51 -17.3 °C -22.2 °C 34395 hPa Calm     52 % 0 mm
02:56 -17.3 °C -22.2 °C 34395 hPa Calm     52 % 0 mm
03:01 -17.4 °C -22.1 °C 34395 hPa Calm     53 % 0 mm
03:06 -17.4 °C -22.2 °C 34395 hPa WSW 5.6 km/h 5.6 km/h 53 % 0 mm
03:11 -17.5 °C -22.2 °C 34395 hPa WSW 3.7 km/h 3.7 km/h 53 % 0 mm
03:16 -17.4 °C -22.2 °C 34361.1 hPa West 6 km/h 6 km/h 53 % 0 mm
03:21 -17.4 °C -22.2 °C 34361.1 hPa South 3.1 km/h   53 % 0 mm
03:26 -17.4 °C -22.2 °C 34361.1 hPa WNW 3.1 km/h 3.1 km/h 53 % 0 mm
03:31 -17.4 °C -22.2 °C 34395 hPa WNW 4.2 km/h 4.2 km/h 53 % 0 mm
03:36 -17.4 °C -22.2 °C 34395 hPa West 6 km/h 6 km/h 53 % 0 mm
03:41 -17.5 °C -22.1 °C 34395 hPa WNW 4.2 km/h 4.2 km/h 54 % 0 mm
03:46 -17.6 °C -22.1 °C 34395 hPa West 3.1 km/h   54 % 0 mm
03:51 -17.6 °C -22.1 °C 34395 hPa NW 6 km/h 6 km/h 54 % 0 mm
03:56 -17.6 °C -22.1 °C 34395 hPa NW 3.1 km/h 3.1 km/h 54 % 0 mm
04:01 -17.6 °C -22.1 °C 34395 hPa ENE 9 km/h 9 km/h 54 % 0 mm
04:06 -17.6 °C -22 °C 34395 hPa Calm     55 % 0 mm
04:11 -17.6 °C -22.1 °C 34395 hPa Calm     55 % 0 mm
04:16 -17.7 °C -22.1 °C 34361.1 hPa Calm     55 % 0 mm
04:21 -17.7 °C -22.1 °C 34361.1 hPa WNW 3.1 km/h 3.7 km/h 55 % 0 mm
04:26 -17.7 °C -22.1 °C 34361.1 hPa WNW 5.1 km/h   55 % 0 mm
04:31 -17.7 °C -22.1 °C 34395 hPa WNW 3.1 km/h 3.1 km/h 55 % 0 mm
04:36 -17.7 °C -22.1 °C 34395 hPa Calm     55 % 0 mm
04:41 -17.7 °C -22.1 °C 34395 hPa West 6 km/h 6 km/h 55 % 0 mm
04:46 -17.7 °C -22.1 °C 34395 hPa WSW 6 km/h 6 km/h 55 % 0 mm
04:51 -17.8 °C -22.1 °C 34395 hPa WSW 5.1 km/h 5.1 km/h 56 % 0 mm
04:56 -17.8 °C -22.1 °C 34395 hPa WSW 3.1 km/h 3.1 km/h 56 % 0 mm
05:01 -17.8 °C -22.1 °C 34395 hPa Calm     56 % 0 mm
05:06 -17.9 °C -22.1 °C 34395 hPa Calm     57 % 0 mm
05:11 -17.9 °C -22.1 °C 34395 hPa Calm     57 % 0 mm
05:16 -17.8 °C -22 °C 34395 hPa Calm     57 % 0 mm
05:21 -17.9 °C -22.1 °C 34395 hPa WSW 5.1 km/h   57 % 0 mm
05:26 -17.9 °C -22.1 °C 34395 hPa WSW 3.7 km/h 3.7 km/h 57 % 0 mm
05:31 -17.9 °C -22.1 °C 34395 hPa WSW 3.1 km/h 3.7 km/h 57 % 0 mm
05:36 -17.9 °C -21.9 °C 34395 hPa Calm     58 % 0 mm
05:41 -18 °C -22.1 °C 34395 hPa WSW 3.1 km/h 3.7 km/h 58 % 0 mm
05:46 -18 °C -21.9 °C 34395 hPa WSW 3.1 km/h   59 % 0 mm
05:51 -17.9 °C -21.8 °C 34395 hPa NNE 5.1 km/h 5.1 km/h 59 % 0 mm
05:56 -17.9 °C -21.8 °C 34395 hPa NE 4.2 km/h 4.2 km/h 59 % 0 mm
06:01 -17.9 °C -21.8 °C 34395 hPa WNW 4.2 km/h   59 % 0 mm
06:06 -17.9 °C -21.8 °C 34395 hPa ENE 3.7 km/h   59 % 0 mm
06:11 -17.9 °C -21.8 °C 34395 hPa NNE 6.8 km/h 6.8 km/h 59 % 0 mm
06:16 -17.9 °C -21.8 °C 34395 hPa WNW 6 km/h 6 km/h 59 % 0 mm
06:21 -17.9 °C -21.8 °C 34395 hPa WNW 6 km/h 6 km/h 59 % 0 mm
06:26 -17.9 °C -21.8 °C 34395 hPa Calm     59 % 0 mm
06:31 -18 °C -21.9 °C 34395 hPa North 3.7 km/h   59 % 0 mm
06:36 -18 °C -21.9 °C 34395 hPa North 6 km/h 6 km/h 59 % 0 mm
06:41 -18 °C -21.8 °C 34395 hPa NNE 3.1 km/h 3.1 km/h 60 % 0 mm
06:46 -18 °C -21.8 °C 34395 hPa Calm     60 % 0 mm
06:51 -18.1 °C -21.8 °C 34395 hPa West 6 km/h 6 km/h 60 % 0 mm
06:56 -18.1 °C -21.8 °C 34395 hPa NE 7.6 km/h 7.6 km/h 60 % 0 mm
07:01 -18.1 °C -21.8 °C 34361.1 hPa NNW 3.1 km/h   60 % 0 mm
07:06 -18.1 °C -21.9 °C 34361.1 hPa ENE 3.1 km/h   60 % 0 mm
07:11 -18.1 °C -21.9 °C 34361.1 hPa South 6 km/h   60 % 0 mm
07:16 -18.1 °C -21.9 °C 34395 hPa Calm     60 % 0 mm
07:21 -18.2 °C -21.8 °C 34395 hPa WNW 6 km/h 6 km/h 61 % 0 mm
07:26 -18.2 °C -21.9 °C 34395 hPa NNE 6 km/h 6 km/h 61 % 0 mm
07:31 -18.1 °C -21.8 °C 34361.1 hPa NE 6 km/h 6 km/h 61 % 0 mm
07:36 -18.1 °C -21.8 °C 34361.1 hPa WNW 3.1 km/h   61 % 0 mm
07:41 -18.1 °C -21.8 °C 34361.1 hPa NNW 6 km/h 6 km/h 61 % 0 mm
07:46 -18.2 °C -21.8 °C 34395 hPa Calm     61 % 0 mm
07:51 -18.2 °C -21.9 °C 34395 hPa WNW 3.1 km/h 3.1 km/h 61 % 0 mm
07:56 -18.2 °C -21.9 °C 34395 hPa ENE 3.1 km/h   61 % 0 mm
08:01 -18.2 °C -21.9 °C 34395 hPa Calm     61 % 0 mm
08:06 -18.3 °C -21.9 °C 34395 hPa West 2.3 km/h   62 % 0 mm
08:11 -18.2 °C -21.8 °C 34395 hPa ENE 6 km/h 6 km/h 62 % 0 mm
08:16 -18.2 °C -21.8 °C 34428.8 hPa WNW 3.7 km/h 3.7 km/h 62 % 0 mm
08:21 -18.2 °C -21.8 °C 34428.8 hPa WNW 5.1 km/h 5.1 km/h 62 % 0 mm
08:26 -18.1 °C -21.7 °C 34428.8 hPa Calm     62 % 0 mm
08:31 -18.1 °C -21.6 °C 34395 hPa Calm     62 % 0 mm
08:36 -18.1 °C -21.7 °C 34395 hPa WSW 6 km/h 6 km/h 62 % 0 mm
08:41 -18.2 °C -21.7 °C 34395 hPa WSW 5.1 km/h 5.1 km/h 62 % 0 mm
08:46 -18.2 °C -21.7 °C 34395 hPa WSW 6 km/h 6 km/h 62 % 0 mm
08:51 -18.2 °C -21.7 °C 34395 hPa Calm     62 % 0 mm
08:56 -18.1 °C -21.7 °C 34395 hPa SSE 3.1 km/h   62 % 0 mm
09:01 -17.9 °C -21.5 °C 34395 hPa NNE 6 km/h 6 km/h 62 % 0 mm
09:06 -17.9 °C -21.4 °C 34395 hPa NE 6 km/h 6 km/h 62 % 0 mm
09:11 -17.9 °C -21.4 °C 34395 hPa NNE 6.3 km/h 6.3 km/h 62 % 0 mm
09:16 -17.9 °C -21.4 °C 34428.8 hPa WNW 3.1 km/h 3.1 km/h 62 % 0 mm
09:21 -17.9 °C -21.4 °C 34428.8 hPa Calm     62 % 0 mm
09:26 -17.9 °C -21.5 °C 34428.8 hPa Calm     62 % 0 mm
09:31 -17.9 °C -21.4 °C 34428.8 hPa SW 3.1 km/h   63 % 0 mm
09:36 -17.9 °C -21.5 °C 34428.8 hPa SW 3.1 km/h 3.7 km/h 62 % 0 mm
09:42 -18 °C -21.6 °C 34428.8 hPa SW 3.1 km/h 3.1 km/h 62 % 0 mm
09:47 -17.9 °C -21.4 °C 34428.8 hPa Calm     63 % 0 mm
09:52 -17.9 °C -21.4 °C 34428.8 hPa Calm     63 % 0 mm
09:57 -17.9 °C -21.4 °C 34428.8 hPa Calm     63 % 0 mm
10:02 -17.9 °C -21.4 °C 34428.8 hPa Calm     63 % 0 mm
10:07 -17.9 °C -21.4 °C 34428.8 hPa Calm     63 % 0 mm
10:12 -17.9 °C -21.4 °C 34428.8 hPa Calm     63 % 0 mm
10:17 -17.9 °C -21.4 °C 34428.8 hPa Calm     63 % 0 mm
10:22 -17.9 °C -21.4 °C 34428.8 hPa Calm     63 % 0 mm
10:27 -17.9 °C -21.4 °C 34428.8 hPa Calm     63 % 0 mm
10:32 -17.9 °C -21.4 °C 34428.8 hPa Calm     63 % 0 mm
10:37 -17.9 °C -21.4 °C 34428.8 hPa Calm     63 % 0 mm
10:42 -17.9 °C -21.4 °C 34428.8 hPa Calm     63 % 0 mm
10:47 -17.9 °C -21.4 °C 34428.8 hPa Calm     63 % 0 mm
10:52 -17.9 °C -21.4 °C 34428.8 hPa Calm     63 % 0 mm
10:57 -17.9 °C -21.4 °C 34428.8 hPa Calm     63 % 0 mm
11:02 -17.9 °C -21.4 °C 34428.8 hPa Calm     63 % 0 mm
11:07 -17.9 °C -21.4 °C 34428.8 hPa Calm     63 % 0 mm
11:12 -17.9 °C -21.4 °C 34428.8 hPa Calm     63 % 0 mm
11:17 -17.9 °C -21.4 °C 34428.8 hPa Calm     63 % 0 mm
11:22 -17.9 °C -21.4 °C 34428.8 hPa Calm     63 % 0 mm
11:27 -17.9 °C -21.4 °C 34428.8 hPa Calm     63 % 0 mm
11:32 -17.9 °C -21.4 °C 34428.8 hPa Calm     63 % 0 mm
11:37 -17.9 °C -21.4 °C 34428.8 hPa Calm     63 % 0 mm
11:42 -15.3 °C -19.9 °C 34462.7 hPa NE 11.9 km/h 11.9 km/h 55 % 0 mm
11:47 -15.2 °C -19.8 °C 34462.7 hPa WNW 11.9 km/h 11.9 km/h 55 % 0 mm
11:52 -15.1 °C -19.7 °C 34462.7 hPa WNW 6 km/h 6 km/h 55 % 0 mm
11:57 -14.7 °C -19.3 °C 34462.7 hPa SSW 6 km/h 6 km/h 55 % 0 mm
12:02 -14.7 °C -19.4 °C 34462.7 hPa WSW 15 km/h 15 km/h 54 % 0 mm
12:07 -14.6 °C -19.3 °C 34462.7 hPa ENE 7.6 km/h 7.6 km/h 54 % 0 mm
12:12 -14.7 °C -19.6 °C 34462.7 hPa ESE 6.3 km/h 6.3 km/h 53 % 0 mm
12:17 -14.7 °C -19.7 °C 34462.7 hPa ESE 9 km/h 9 km/h 52 % 0 mm
12:22 -14.6 °C -19.6 °C 34462.7 hPa South 11.9 km/h 11.9 km/h 52 % 0 mm
12:27 -14.6 °C -19.6 °C 34428.8 hPa ENE 11.9 km/h 11.9 km/h 52 % 0 mm
12:32 -14.5 °C -19.6 °C 34428.8 hPa NNE 9.3 km/h 9.3 km/h 52 % 0 mm
12:37 -14.5 °C -19.6 °C 34428.8 hPa ENE 9 km/h 9 km/h 52 % 0 mm
12:42 -14.3 °C -19.4 °C 34428.8 hPa ENE 9 km/h 9 km/h 52 % 0 mm
12:47 -14.3 °C -19.4 °C 34428.8 hPa ENE 11.9 km/h 11.9 km/h 52 % 0 mm
12:52 -14.4 °C -19.5 °C 34428.8 hPa ESE 6 km/h 6 km/h 52 % 0 mm
12:57 -14.2 °C -19.3 °C 34395 hPa ENE 8 km/h 8 km/h 52 % 0 mm
13:02 -14.3 °C -19.5 °C 34395 hPa SE 14 km/h 14 km/h 51 % 0 mm
13:07 -14 °C -19.3 °C 34395 hPa South 11.9 km/h 11.9 km/h 51 % 0 mm
13:12 -14.2 °C -19.4 °C 34395 hPa East 8 km/h 8 km/h 51 % 0 mm
13:17 -14.3 °C -19.5 °C 34395 hPa ENE 6 km/h 6 km/h 51 % 0 mm
13:22 -14.3 °C -19.6 °C 34395 hPa ENE 6.3 km/h 6.3 km/h 51 % 0 mm
13:27 -14.3 °C -19.5 °C 34395 hPa East 15 km/h 15 km/h 51 % 0 mm
13:32 -14.2 °C -19.4 °C 34395 hPa SSE 11.9 km/h 11.9 km/h 51 % 0 mm
13:37 -14 °C -19.3 °C 34395 hPa East 11.9 km/h 11.9 km/h 51 % 0 mm
13:42 -14.2 °C -19.4 °C 34395 hPa ESE 14 km/h 14 km/h 51 % 0 mm
13:47 -14.3 °C -19.7 °C 34395 hPa ESE 15.6 km/h 15.6 km/h 50 % 0 mm
13:52 -14.3 °C -19.7 °C 34395 hPa NNE 14 km/h 14 km/h 50 % 0 mm
13:57 -14.2 °C -19.4 °C 34428.8 hPa NE 15 km/h 15 km/h 51 % 0 mm
14:02 -14.2 °C -19.8 °C 34428.8 hPa ESE 15 km/h 15 km/h 49 % 0 mm
14:07 -14.1 °C -19.6 °C 34428.8 hPa WSW 6 km/h 6 km/h 49 % 0 mm
14:12 -13.9 °C -19.4 °C 34395 hPa ESE 11.9 km/h 11.9 km/h 49 % 0 mm
14:17 -13.9 °C -19.4 °C 34395 hPa East 15 km/h 15 km/h 49 % 0 mm
14:22 -13.9 °C -19.5 °C 34395 hPa ESE 15 km/h 15 km/h 49 % 0 mm
14:27 -13.8 °C -19.4 °C 34395 hPa ESE 9.3 km/h 9.3 km/h 49 % 0 mm
14:32 -13.8 °C -19.3 °C 34395 hPa East 15.6 km/h 15.6 km/h 49 % 0 mm
14:37 -13.9 °C -19.5 °C 34395 hPa ESE 18.3 km/h 18.3 km/h 49 % 0 mm
14:42 -14.1 °C -19.3 °C 34395 hPa ENE 23.8 km/h 23.8 km/h 51 % 0 mm
14:47 -14.4 °C -19.4 °C 34395 hPa ESE 20.9 km/h 20.9 km/h 53 % 0 mm
14:52 -14.7 °C -19.3 °C 34395 hPa ENE 26.9 km/h 26.9 km/h 55 % 0 mm
14:57 -14.6 °C -19 °C 34395 hPa ESE 24.3 km/h 24.3 km/h 57 % 0 mm
15:02 -14.7 °C -18.9 °C 34395 hPa ESE 20.9 km/h 20.9 km/h 58 % 0 mm
15:07 -14.8 °C -18.9 °C 34395 hPa East 28.2 km/h 28.2 km/h 59 % 0 mm
15:12 -14.8 °C -18.8 °C 34395 hPa ESE 20.9 km/h 20.9 km/h 60 % 0 mm
15:17 -14.8 °C -18.8 °C 34395 hPa ESE 23.8 km/h 23.8 km/h 60 % 0 mm
15:22 -14.9 °C -18.7 °C 34395 hPa ESE 29.8 km/h 29.8 km/h 61 % 0 mm
15:27 -15 °C -18.8 °C 34395 hPa ENE 19.2 km/h 19.2 km/h 61 % 0 mm
15:32 -15.1 °C -18.9 °C 34395 hPa ESE 15 km/h 15 km/h 61 % 0 mm
15:37 -15.1 °C -18.9 °C 34395 hPa ENE 29.8 km/h 29.8 km/h 61 % 0 mm
15:42 -15.2 °C -19 °C 34395 hPa East 17.9 km/h 17.9 km/h 61 % 0 mm
15:47 -15.1 °C -18.9 °C 34395 hPa ENE 17.9 km/h 17.9 km/h 61 % 0 mm
15:52 -15.1 °C -18.9 °C 34395 hPa NNE 17.9 km/h 17.9 km/h 61 % 0 mm
15:57 -15.1 °C -18.9 °C 34395 hPa East 12.7 km/h 12.7 km/h 61 % 0 mm
16:02 -15.1 °C -18.9 °C 34395 hPa East 11.9 km/h 11.9 km/h 61 % 0 mm
16:07 -15.1 °C -18.9 °C 34395 hPa SE 9 km/h 9 km/h 61 % 0 mm
16:12 -15.2 °C -19.1 °C 34395 hPa NE 16.6 km/h 16.6 km/h 60 % 0 mm
16:17 -15.1 °C -18.9 °C 34395 hPa ENE 14.5 km/h 14.5 km/h 61 % 0 mm
16:22 -15.2 °C -19 °C 34395 hPa ENE 15 km/h 15 km/h 61 % 0 mm
16:27 -15.2 °C -19 °C 34395 hPa ESE 20.9 km/h 20.9 km/h 61 % 0 mm
16:32 -15.2 °C -19.1 °C 34395 hPa ENE 19.2 km/h 19.2 km/h 61 % 0 mm
16:37 -15.3 °C -19.1 °C 34395 hPa ENE 15.6 km/h 15.6 km/h 61 % 0 mm
16:42 -15.3 °C -19.1 °C 34428.8 hPa East 17.9 km/h 17.9 km/h 61 % 0 mm
16:47 -15.3 °C -19.2 °C 34428.8 hPa NE 11.9 km/h 11.9 km/h 61 % 0 mm
16:52 -15.3 °C -19.2 °C 34428.8 hPa ENE 11.9 km/h 11.9 km/h 61 % 0 mm
16:57 -15.4 °C -19.1 °C 34428.8 hPa NNE 12.2 km/h 12.2 km/h 62 % 0 mm
17:02 -15.4 °C -19.1 °C 34428.8 hPa ENE 15 km/h 15 km/h 62 % 0 mm
17:07 -15.4 °C -19.1 °C 34428.8 hPa NE 11.9 km/h 11.9 km/h 62 % 0 mm
17:12 -15.4 °C -19.1 °C 34428.8 hPa NNE 11.9 km/h 11.9 km/h 62 % 0 mm
17:17 -15.4 °C -19.1 °C 34428.8 hPa NW 11.9 km/h 11.9 km/h 62 % 0 mm
17:22 -15.5 °C -19.2 °C 34428.8 hPa NE 9 km/h 9 km/h 62 % 0 mm
17:27 -15.5 °C -19.2 °C 34428.8 hPa NNE 15 km/h 15 km/h 62 % 0 mm
17:32 -15.5 °C -19.2 °C 34428.8 hPa NNE 9 km/h 9 km/h 62 % 0 mm
17:37 -15.5 °C -19.2 °C 34428.8 hPa NNE 11.9 km/h 11.9 km/h 62 % 0 mm
17:42 -15.6 °C -19.2 °C 34428.8 hPa NE 9 km/h 9 km/h 62 % 0 mm
17:47 -15.6 °C -19.2 °C 34428.8 hPa NNE 9 km/h 9 km/h 62 % 0 mm
17:52 -15.6 °C -19.3 °C 34428.8 hPa NNE 9.3 km/h 9.3 km/h 62 % 0 mm
17:57 -15.6 °C -19.3 °C 34462.7 hPa ENE 9.8 km/h 9.8 km/h 62 % 0 mm
18:02 -15.6 °C -19.3 °C 34462.7 hPa NE 6 km/h 6 km/h 62 % 0 mm
18:07 -15.6 °C -19.3 °C 34462.7 hPa NNE 6 km/h 6 km/h 62 % 0 mm
18:12 -15.7 °C -19.3 °C 34428.8 hPa East 6 km/h 6 km/h 62 % 0 mm
18:17 -15.7 °C -19.3 °C 34428.8 hPa NE 4.2 km/h 4.2 km/h 62 % 0 mm
18:22 -15.7 °C -19.3 °C 34428.8 hPa ENE 6 km/h 6 km/h 62 % 0 mm
18:27 -15.7 °C -19.3 °C 34462.7 hPa ENE 6 km/h 6 km/h 62 % 0 mm
18:32 -15.7 °C -19.3 °C 34462.7 hPa ENE 4.2 km/h 4.2 km/h 62 % 0 mm
18:37 -15.7 °C -19.3 °C 34462.7 hPa NE 6 km/h 6 km/h 62 % 0 mm
18:42 -15.7 °C -19.4 °C 34462.7 hPa Calm     62 % 0 mm
18:47 -15.7 °C -19.4 °C 34462.7 hPa ENE 3.1 km/h 3.1 km/h 62 % 0 mm
18:52 -15.7 °C -19.4 °C 34462.7 hPa ENE 3.1 km/h 3.7 km/h 62 % 0 mm
18:57 -15.7 °C -19.4 °C 34462.7 hPa Calm     62 % 0 mm
19:02 -15.7 °C -19.4 °C 34462.7 hPa Calm     62 % 0 mm
19:07 -15.7 °C -19.3 °C 34462.7 hPa Calm     63 % 0 mm
19:12 -15.8 °C -19.3 °C 34462.7 hPa Calm     63 % 0 mm
19:17 -15.7 °C -19.4 °C 34462.7 hPa NE 6 km/h 6 km/h 62 % 0 mm
19:22 -15.7 °C -19.4 °C 34462.7 hPa ENE 11.9 km/h 11.9 km/h 62 % 0 mm
19:27 -15.7 °C -19.3 °C 34462.7 hPa ENE 6.3 km/h 6.3 km/h 63 % 0 mm
19:32 -15.7 °C -19.4 °C 34462.7 hPa NNE 6 km/h 6 km/h 62 % 0 mm
19:37 -15.7 °C -19.4 °C 34462.7 hPa ENE 9 km/h 9 km/h 62 % 0 mm
19:42 -15.7 °C -19.4 °C 34462.7 hPa NE 6 km/h 6 km/h 62 % 0 mm
19:47 -15.7 °C -19.4 °C 34462.7 hPa SSE 6 km/h 6 km/h 62 % 0 mm
19:52 -15.7 °C -19.4 °C 34462.7 hPa Calm     62 % 0 mm
19:57 -15.8 °C -19.4 °C 34462.7 hPa SSE 3.1 km/h 3.1 km/h 62 % 0 mm
20:02 -15.8 °C -19.3 °C 34462.7 hPa Calm     63 % 0 mm
20:07 -15.8 °C -19.4 °C 34462.7 hPa East 3.1 km/h 3.7 km/h 63 % 0 mm
20:12 -15.8 °C -19.4 °C 34462.7 hPa NNE 9 km/h 9 km/h 63 % 0 mm
20:17 -15.8 °C -19.5 °C 34462.7 hPa NNE 6.3 km/h 6.3 km/h 62 % 0 mm
20:22 -15.8 °C -19.5 °C 34462.7 hPa NNE 6 km/h 6 km/h 62 % 0 mm
20:27 -15.9 °C -19.6 °C 34462.7 hPa NNE 3.1 km/h   62 % 0 mm
20:32 -15.9 °C -19.6 °C 34462.7 hPa NNE 6.3 km/h 6.3 km/h 62 % 0 mm
20:37 -16 °C -19.7 °C 34462.7 hPa NNE 6 km/h 6 km/h 62 % 0 mm
20:42 -16.1 °C -19.8 °C 34462.7 hPa NNE 3.1 km/h   62 % 0 mm
20:47 -16.2 °C -19.8 °C 34462.7 hPa NE 3.1 km/h 3.1 km/h 62 % 0 mm
20:52 -16.2 °C -19.9 °C 34462.7 hPa Calm     62 % 0 mm
20:57 -16.3 °C -19.9 °C 34462.7 hPa NNE 3.1 km/h   62 % 0 mm
21:02 -16.3 °C -19.9 °C 34462.7 hPa NNE 3.1 km/h 3.1 km/h 62 % 0 mm
21:07 -16.4 °C -19.9 °C 34462.7 hPa Calm     63 % 0 mm
21:12 -16.4 °C -19.9 °C 34462.7 hPa Calm     63 % 0 mm
21:17 -16.6 °C -20.1 °C 34462.7 hPa Calm     63 % 0 mm
21:22 -16.6 °C -20 °C 34462.7 hPa Calm     64 % 0 mm
21:27 -16.7 °C -20.1 °C 34462.7 hPa Calm     64 % 0 mm
21:32 -16.7 °C -20.1 °C 34462.7 hPa Calm     64 % 0 mm
21:37 -16.7 °C -20.1 °C 34462.7 hPa WNW 3.1 km/h   64 % 0 mm
21:43 -16.8 °C -20.2 °C 34462.7 hPa Calm     64 % 0 mm
21:48 -16.8 °C -20.2 °C 34462.7 hPa NW 3.1 km/h 3.1 km/h 64 % 0 mm
21:53 -16.8 °C -20.2 °C 34462.7 hPa Calm     64 % 0 mm
21:58 -16.9 °C -20.2 °C 34462.7 hPa Calm     65 % 0 mm
22:03 -16.9 °C -20.2 °C 34462.7 hPa Calm     65 % 0 mm
22:07 -16.9 °C -20.2 °C 34462.7 hPa Calm     65 % 0 mm
22:13 -17 °C -20.2 °C 34462.7 hPa Calm     65 % 0 mm
22:18 -17.1 °C -20.3 °C 34462.7 hPa Calm     65 % 0 mm
22:23 -17.1 °C -20.4 °C 34462.7 hPa Calm     65 % 0 mm
22:28 -17.2 °C -20.4 °C 34428.8 hPa Calm     65 % 0 mm
22:33 -17.2 °C -20.4 °C 34428.8 hPa Calm     65 % 0 mm
22:38 -17.2 °C -20.4 °C 34428.8 hPa Calm     66 % 0 mm
22:43 -17.2 °C -20.4 °C 34428.8 hPa Calm     66 % 0 mm
22:48 -17.2 °C -20.3 °C 34428.8 hPa NW 3.1 km/h   66 % 0 mm
22:53 -17.2 °C -20.2 °C 34428.8 hPa Calm     67 % 0 mm
22:58 -17.2 °C -20.3 °C 34428.8 hPa Calm     66 % 0 mm
23:03 -17.3 °C -20.4 °C 34428.8 hPa Calm     66 % 0 mm
23:08 -17.3 °C -20.4 °C 34428.8 hPa Calm     66 % 0 mm
23:13 -17.3 °C -20.3 °C 34462.7 hPa Calm     67 % 0 mm
23:18 -17.4 °C -20.4 °C 34462.7 hPa WNW 3.1 km/h   67 % 0 mm
23:23 -17.4 °C -20.4 °C 34462.7 hPa Calm     67 % 0 mm
23:28 -17.4 °C -20.4 °C 34462.7 hPa WNW 3.1 km/h   67 % 0 mm
23:33 -17.6 °C -20.6 °C 34462.7 hPa WSW 6 km/h 6 km/h 67 % 0 mm
23:38 -17.6 °C -20.6 °C 34462.7 hPa Calm     67 % 0 mm
23:43 -17.6 °C -20.5 °C 34462.7 hPa WSW 3.7 km/h   68 % 0 mm
23:48 -17.7 °C -20.6 °C 34462.7 hPa WSW 6 km/h 6 km/h 68 % 0 mm
23:53 -17.7 °C -20.6 °C 34462.7 hPa WSW 6 km/h   68 % 0 mm
23:58 -17.8 °C -20.7 °C 34462.7 hPa Calm     68 % 0 mm
Meteo Sesrovires
Elogis d' Weather Underground - 4 mb

Guio original per  Jim McMurry - jmcmurry@mwt.net Adaptat per a la plantilla per  Wim van der Kuil - Leuven-Template.eu

Trobareu la nostra informacio del temps tambe a:

Weather Underground

AWEKAS